createdAt,value
2023-04-14T00:03:43.601Z,1.63
2023-04-14T00:07:48.181Z,1.65
2023-04-14T00:11:51.596Z,2.30
2023-04-14T00:15:55.182Z,2.22
2023-04-14T00:19:58.566Z,2.00
2023-04-14T00:24:03.133Z,1.75
2023-04-14T00:28:07.108Z,1.65
2023-04-14T00:32:10.598Z,1.58
2023-04-14T00:36:13.916Z,2.05
2023-04-14T00:40:18.652Z,1.45
2023-04-14T00:44:23.064Z,1.85
2023-04-14T00:48:26.150Z,1.98
2023-04-14T00:52:29.525Z,1.70
2023-04-14T00:56:35.239Z,1.65
2023-04-14T01:00:39.542Z,2.10
2023-04-14T01:04:53.795Z,1.65
2023-04-14T01:08:58.271Z,2.10
2023-04-14T01:13:22.830Z,1.35
2023-04-14T01:17:34.099Z,1.58
2023-04-14T01:21:42.968Z,1.63
2023-04-14T01:26:08.792Z,2.70
2023-04-14T01:30:29.973Z,2.28
2023-04-14T01:34:39.371Z,2.75
2023-04-14T01:38:44.118Z,2.08
2023-04-14T01:42:51.651Z,2.47
2023-04-14T01:46:57.785Z,2.38
2023-04-14T01:51:04.822Z,2.20
2023-04-14T01:55:10.685Z,1.95
2023-04-14T01:59:16.042Z,1.95
2023-04-14T02:03:20.740Z,2.28
2023-04-14T02:07:27.398Z,1.55
2023-04-14T02:11:32.106Z,2.28
2023-04-14T02:15:37.492Z,1.80
2023-04-14T02:19:44.045Z,1.50
2023-04-14T02:23:49.168Z,0.98
2023-04-14T02:27:57.473Z,2.13
2023-04-14T02:32:05.010Z,1.67
2023-04-14T02:36:15.410Z,1.70
2023-04-14T02:40:26.050Z,1.58
2023-04-14T02:44:33.896Z,1.38
2023-04-14T02:48:38.552Z,1.48
2023-04-14T02:52:42.404Z,1.65
2023-04-14T02:56:48.032Z,1.95
2023-04-14T03:00:52.043Z,1.70
2023-04-14T03:04:56.574Z,1.33
2023-04-14T03:09:01.971Z,0.93
2023-04-14T03:13:09.230Z,1.83
2023-04-14T03:17:14.956Z,1.30
2023-04-14T03:21:19.921Z,1.20
2023-04-14T03:25:23.075Z,1.60
2023-04-14T03:29:30.658Z,1.27
2023-04-14T03:33:34.118Z,1.17
2023-04-14T03:37:41.663Z,1.20
2023-04-14T03:41:49.351Z,1.67
2023-04-14T03:45:54.335Z,1.40
2023-04-14T03:50:01.373Z,2.17
2023-04-14T03:54:07.695Z,1.40
2023-04-14T03:58:13.495Z,1.42
2023-04-14T04:02:21.385Z,1.08
2023-04-14T04:06:25.998Z,1.20
2023-04-14T04:10:31.760Z,1.10
2023-04-14T04:14:39.044Z,1.13
2023-04-14T04:18:50.976Z,0.70
2023-04-14T04:22:58.186Z,1.47
2023-04-14T04:27:01.720Z,1.40
2023-04-14T04:31:07.290Z,1.50
2023-04-14T04:35:13.140Z,1.10
2023-04-14T04:39:16.257Z,1.20
2023-04-14T04:43:19.644Z,1.20
2023-04-14T04:47:23.747Z,2.15
2023-04-14T04:51:29.243Z,1.65
2023-04-14T04:55:32.399Z,1.67
2023-04-14T04:59:38.356Z,1.88
2023-04-14T05:03:42.287Z,2.35
2023-04-14T05:07:46.996Z,1.70
2023-04-14T05:11:50.584Z,1.67
2023-04-14T05:15:53.951Z,1.20
2023-04-14T05:19:57.853Z,1.85
2023-04-14T05:24:02.654Z,1.83
2023-04-14T05:28:05.992Z,1.95
2023-04-14T05:32:09.862Z,1.25
2023-04-14T05:36:12.938Z,1.20
2023-04-14T05:40:18.526Z,1.27
2023-04-14T05:44:22.785Z,2.08
2023-04-14T05:48:29.485Z,1.35
2023-04-14T05:52:32.998Z,1.20
2023-04-14T05:56:38.626Z,1.20
2023-04-14T06:00:41.486Z,1.58
2023-04-14T06:04:45.230Z,1.63
2023-04-14T06:08:48.943Z,1.40
2023-04-14T06:12:53.827Z,1.58
2023-04-14T06:16:57.805Z,1.88
2023-04-14T06:21:01.623Z,1.48
2023-04-14T06:25:05.321Z,0.93
2023-04-14T06:29:10.699Z,1.02
2023-04-14T06:33:13.854Z,1.55
2023-04-14T06:37:18.126Z,1.60
2023-04-14T06:41:21.280Z,1.30
2023-04-14T06:45:26.564Z,1.60
2023-04-14T06:49:29.645Z,1.23
2023-04-14T06:53:33.564Z,1.17
2023-04-14T06:57:36.909Z,1.65
2023-04-14T07:01:43.148Z,1.90
2023-04-14T07:05:46.809Z,1.40
2023-04-14T07:09:50.447Z,1.35
2023-04-14T07:13:53.632Z,1.20
2023-04-14T07:18:00.019Z,0.85
2023-04-14T07:22:03.244Z,1.15
2023-04-14T07:26:07.666Z,1.35
2023-04-14T07:30:12.065Z,1.52
2023-04-14T07:34:18.921Z,1.58
2023-04-14T07:38:22.140Z,1.88
2023-04-14T07:42:25.473Z,1.85
2023-04-14T07:46:28.740Z,1.35
2023-04-14T07:50:33.772Z,1.50
2023-04-14T07:54:36.863Z,1.60
2023-04-14T07:58:40.762Z,1.45
2023-04-14T08:02:44.040Z,1.20
2023-04-14T08:06:49.140Z,1.80
2023-04-14T08:10:52.198Z,1.35
2023-04-14T08:14:57.348Z,1.90
2023-04-14T08:19:00.656Z,1.42
2023-04-14T08:23:07.328Z,1.35
2023-04-14T08:27:10.597Z,1.10
2023-04-14T08:31:13.970Z,0.90
2023-04-14T08:35:39.387Z,1.13
2023-04-14T08:39:42.381Z,1.02
2023-04-14T08:43:46.487Z,1.08
2023-04-14T08:47:54.588Z,0.90
2023-04-14T08:52:00.838Z,0.70
2023-04-14T08:56:09.747Z,0.68
2023-04-14T09:00:14.363Z,1.33
2023-04-14T09:04:21.084Z,0.85
2023-04-14T09:08:25.119Z,0.65
2023-04-14T09:12:32.557Z,0.80
2023-04-14T09:16:36.417Z,0.50
2023-04-14T09:20:41.598Z,0.70
2023-04-14T09:24:45.483Z,1.10
2023-04-14T09:28:50.484Z,0.52
2023-04-14T09:32:54.584Z,0.80
2023-04-14T09:37:03.850Z,0.90
2023-04-14T09:41:07.595Z,0.70
2023-04-14T09:45:13.667Z,1.15
2023-04-14T09:49:17.202Z,0.82
2023-04-14T09:53:28.064Z,0.80
2023-04-14T09:57:31.591Z,1.13
2023-04-14T10:01:36.895Z,0.80
2023-04-14T10:05:40.316Z,0.73
2023-04-14T10:09:43.799Z,0.60
2023-04-14T10:13:47.449Z,0.60
2023-04-14T10:17:52.830Z,0.60
2023-04-14T10:21:56.165Z,0.52
2023-04-14T10:26:00.304Z,0.77
2023-04-14T10:30:04.165Z,0.90
2023-04-14T10:34:14.166Z,1.05
2023-04-14T10:38:17.522Z,0.88
2023-04-14T10:42:21.291Z,1.35
2023-04-14T10:46:24.960Z,0.80
2023-04-14T10:50:32.302Z,0.55
2023-04-14T10:54:51.505Z,0.88
2023-04-14T10:58:59.692Z,1.20
2023-04-14T11:03:05.970Z,0.90
2023-04-14T11:07:11.722Z,0.77
2023-04-14T11:11:18.740Z,0.63
2023-04-14T11:15:22.578Z,0.82
2023-04-14T11:23:31.699Z,0.50
2023-04-14T11:27:35.136Z,0.82
2023-04-14T11:31:38.717Z,0.70
2023-04-14T11:35:44.269Z,0.95
2023-04-14T11:39:49.515Z,0.70
2023-04-14T11:43:53.033Z,0.50
2023-04-14T11:48:01.486Z,0.45
2023-04-14T11:52:10.561Z,0.75
2023-04-14T11:56:15.782Z,0.70
2023-04-14T12:00:19.441Z,0.70
2023-04-14T12:04:23.011Z,0.52
2023-04-14T12:08:26.168Z,0.70
2023-04-14T12:12:34.368Z,1.10
2023-04-14T12:16:38.507Z,0.85
2023-04-14T12:20:47.236Z,0.60
2023-04-14T12:24:50.681Z,0.90
2023-04-14T12:28:59.213Z,0.50
2023-04-14T12:37:09.114Z,0.55
2023-04-14T12:41:12.358Z,1.15
2023-04-14T12:45:18.405Z,0.57
2023-04-14T12:49:31.916Z,0.68
2023-04-14T12:53:38.750Z,1.10
2023-04-14T12:57:43.269Z,1.08
2023-04-14T13:01:48.079Z,0.80
2023-04-14T13:05:51.890Z,0.85
2023-04-14T13:09:55.074Z,0.90
2023-04-14T13:13:58.568Z,0.93
2023-04-14T13:18:03.117Z,0.73
2023-04-14T13:22:06.108Z,0.90
2023-04-14T13:26:10.129Z,0.90
2023-04-14T13:30:16.614Z,0.70
2023-04-14T13:34:21.009Z,0.50
2023-04-14T13:38:24.193Z,0.93
2023-04-14T13:42:27.761Z,0.85
2023-04-14T13:46:40.492Z,0.70
2023-04-14T13:50:46.741Z,0.50
2023-04-14T13:54:50.300Z,0.68
2023-04-14T13:58:55.982Z,0.68
2023-04-14T14:02:59.605Z,0.80
2023-04-14T14:07:04.608Z,0.77
2023-04-14T14:11:07.953Z,1.15
2023-04-14T14:15:12.563Z,1.00
2023-04-14T14:19:17.269Z,1.30
2023-04-14T14:23:22.474Z,0.82
2023-04-14T14:27:26.993Z,1.17
2023-04-14T14:31:30.422Z,0.68
2023-04-14T14:35:33.789Z,0.90
2023-04-14T14:39:38.572Z,0.80
2023-04-14T14:43:42.139Z,0.80
2023-04-14T14:47:48.706Z,1.13
2023-04-14T14:51:52.616Z,1.27
2023-04-14T14:55:57.227Z,1.30
2023-04-14T15:00:00.557Z,1.63
2023-04-14T15:04:08.463Z,1.75
2023-04-14T15:08:13.636Z,1.10
2023-04-14T15:12:20.361Z,1.92
2023-04-14T15:16:23.618Z,1.48
2023-04-14T15:20:26.964Z,1.33
2023-04-14T15:24:30.160Z,1.40
2023-04-14T15:28:36.129Z,1.35
2023-04-14T15:32:39.511Z,1.50
2023-04-14T15:36:43.109Z,1.45
2023-04-14T15:40:46.331Z,1.20
2023-04-14T15:44:52.264Z,1.05
2023-04-14T15:48:56.002Z,0.90
2023-04-14T15:52:59.221Z,1.15
2023-04-14T15:57:04.780Z,0.65
2023-04-14T16:01:10.610Z,0.68
2023-04-14T16:05:15.117Z,1.15
2023-04-14T16:09:18.539Z,1.00
2023-04-14T16:13:22.222Z,0.80
2023-04-14T16:17:27.047Z,0.70
2023-04-14T16:21:30.307Z,1.08
2023-04-14T16:25:35.208Z,0.75
2023-04-14T16:29:39.036Z,0.68
2023-04-14T16:33:43.961Z,1.52
2023-04-14T16:37:47.249Z,1.10
2023-04-14T16:41:51.994Z,1.17
2023-04-14T16:45:55.546Z,1.13
2023-04-14T16:50:00.798Z,1.73
2023-04-14T16:54:05.166Z,1.42
2023-04-14T16:58:10.090Z,1.75
2023-04-14T17:02:13.550Z,1.92
2023-04-14T17:06:19.296Z,1.70
2023-04-14T17:10:23.011Z,1.70
2023-04-14T17:14:27.492Z,1.73
2023-04-14T17:18:31.423Z,2.10
2023-04-14T17:22:37.559Z,1.50
2023-04-14T17:26:40.558Z,2.08
2023-04-14T17:30:44.371Z,1.77
2023-04-14T17:34:50.169Z,1.80
2023-04-14T17:38:55.188Z,1.70
2023-04-14T17:43:04.449Z,1.35
2023-04-14T17:47:13.770Z,1.58
2023-04-14T17:51:18.867Z,1.40
2023-04-14T17:55:23.928Z,1.88
2023-04-14T17:59:27.190Z,1.15
2023-04-14T18:03:31.053Z,1.00
2023-04-14T18:07:34.705Z,1.77
2023-04-14T18:11:40.341Z,1.30
2023-04-14T18:15:44.806Z,1.00
2023-04-14T18:19:48.415Z,2.58
2023-04-14T18:28:03.913Z,2.05
2023-04-14T18:32:07.384Z,1.58
2023-04-14T18:36:10.922Z,2.20
2023-04-14T18:40:16.906Z,2.80
2023-04-14T18:44:24.645Z,3.20
2023-04-14T18:48:27.705Z,2.13
2023-04-14T18:52:31.187Z,2.88
2023-04-14T18:56:35.685Z,2.28
2023-04-14T19:00:40.895Z,2.20
2023-04-14T19:04:44.968Z,2.30
2023-04-14T19:08:48.427Z,2.70
2023-04-14T19:12:51.653Z,2.58
2023-04-14T19:16:56.726Z,2.75
2023-04-14T19:21:00.192Z,3.22
2023-04-14T19:25:04.440Z,3.83
2023-04-14T19:29:10.321Z,3.00
2023-04-14T19:33:15.713Z,3.33
2023-04-14T19:37:18.900Z,2.75
2023-04-14T19:41:22.088Z,3.65
2023-04-14T19:45:25.175Z,3.47
2023-04-14T19:49:32.938Z,4.57
2023-04-14T19:53:36.542Z,3.03
2023-04-14T19:57:39.841Z,3.67
2023-04-14T20:01:45.444Z,3.40
2023-04-14T20:05:53.064Z,2.95
2023-04-14T20:09:56.440Z,2.83
2023-04-14T20:14:00.709Z,3.05
2023-04-14T20:18:09.293Z,2.92
2023-04-14T20:22:15.225Z,2.70
2023-04-14T20:26:18.285Z,3.28
2023-04-14T20:30:22.382Z,2.67
2023-04-14T20:34:25.837Z,2.45
2023-04-14T20:38:30.935Z,2.70
2023-04-14T20:42:36.103Z,2.22
2023-04-14T20:46:40.018Z,1.92
2023-04-14T20:50:44.566Z,2.25
2023-04-14T20:54:51.829Z,2.13
2023-04-14T20:58:55.055Z,2.15
2023-04-14T21:02:58.952Z,2.97
2023-04-14T21:07:02.565Z,2.10
2023-04-14T21:11:17.146Z,2.15
2023-04-14T21:15:47.056Z,2.25
2023-04-14T21:19:45.085Z,2.13
2023-04-14T21:23:49.204Z,1.98
2023-04-14T21:27:54.617Z,2.47
2023-04-14T21:31:58.492Z,3.05
2023-04-14T21:36:02.969Z,2.35
2023-04-14T21:40:10.242Z,2.05
2023-04-14T21:44:16.129Z,2.45
2023-04-14T21:48:21.124Z,2.35
2023-04-14T21:52:25.646Z,2.10
2023-04-14T21:56:29.566Z,2.90
2023-04-14T22:00:34.524Z,2.10
2023-04-14T22:04:38.657Z,1.95
2023-04-14T22:08:42.813Z,1.85
2023-04-14T22:12:48.293Z,1.88
2023-04-14T22:16:54.275Z,1.60
2023-04-14T22:20:57.452Z,1.73
2023-04-14T22:25:00.681Z,1.65
2023-04-14T22:29:04.468Z,1.48
2023-04-14T22:33:11.400Z,2.22
2023-04-14T22:37:15.093Z,2.15
2023-04-14T22:41:20.416Z,2.30
2023-04-14T22:45:23.702Z,1.60
2023-04-14T22:49:28.867Z,2.25
2023-04-14T22:53:34.630Z,2.65
2023-04-14T22:57:39.004Z,1.88
2023-04-14T23:01:42.662Z,2.63
2023-04-14T23:05:47.434Z,2.65
2023-04-14T23:09:51.993Z,2.97
2023-04-14T23:13:55.209Z,2.75
2023-04-14T23:17:59.604Z,1.98
2023-04-14T23:22:04.854Z,2.50
2023-04-14T23:26:10.012Z,2.17
2023-04-14T23:30:13.962Z,1.90
2023-04-14T23:34:17.092Z,3.10
2023-04-14T23:38:22.029Z,1.67
2023-04-14T23:42:25.511Z,1.80
2023-04-14T23:46:28.981Z,2.15
2023-04-14T23:51:01.319Z,2.70
2023-04-14T23:54:58.732Z,2.35
2023-04-14T23:59:02.513Z,1.75
